createdAt,value
2023-01-15T00:00:43.296Z,7.7
2023-01-15T00:01:43.296Z,7.7
2023-01-15T00:02:43.335Z,7.9
2023-01-15T00:03:43.301Z,8
2023-01-15T00:04:43.296Z,8
2023-01-15T00:06:43.297Z,8
2023-01-15T00:07:43.287Z,8
2023-01-15T00:08:43.294Z,8.1
2023-01-15T00:09:43.296Z,8
2023-01-15T00:10:43.291Z,7.9
2023-01-15T00:11:43.293Z,8
2023-01-15T00:12:43.296Z,8
2023-01-15T00:13:43.289Z,7.9
2023-01-15T00:14:43.310Z,7.9
2023-01-15T00:15:43.323Z,7.8
2023-01-15T00:16:43.295Z,7.9
2023-01-15T00:17:43.340Z,7.8
2023-01-15T00:18:43.286Z,8
2023-01-15T00:19:43.371Z,8.1
2023-01-15T00:20:43.299Z,8.2
2023-01-15T00:21:43.335Z,8.2
2023-01-15T00:22:43.292Z,7.8
2023-01-15T00:23:43.297Z,7.8
2023-01-15T00:24:43.301Z,7.9
2023-01-15T00:25:43.297Z,8.1
2023-01-15T00:26:43.290Z,8.1
2023-01-15T00:27:43.293Z,8
2023-01-15T00:28:43.304Z,8.1
2023-01-15T00:29:43.312Z,7.9
2023-01-15T00:30:43.293Z,7.9
2023-01-15T00:32:43.298Z,7.8
2023-01-15T00:33:43.290Z,7.9
2023-01-15T00:34:43.297Z,8.1
2023-01-15T00:35:43.287Z,8.1
2023-01-15T00:36:43.304Z,8.2
2023-01-15T00:37:43.296Z,7.9
2023-01-15T00:38:43.310Z,8.2
2023-01-15T00:39:43.320Z,8
2023-01-15T00:40:43.288Z,8.3
2023-01-15T00:41:43.290Z,8.1
2023-01-15T00:42:43.287Z,8.4
2023-01-15T00:43:43.299Z,8.4
2023-01-15T00:44:43.287Z,8.1
2023-01-15T00:45:43.293Z,8.2
2023-01-15T00:46:43.359Z,8.3
2023-01-15T00:47:43.295Z,8.4
2023-01-15T00:48:43.295Z,8.6
2023-01-15T00:49:43.293Z,8.5
2023-01-15T00:50:43.291Z,8.4
2023-01-15T00:51:43.292Z,8.5
2023-01-15T00:52:43.294Z,8.5
2023-01-15T00:53:43.299Z,8.1
2023-01-15T00:54:43.297Z,8.2
2023-01-15T00:55:43.287Z,8.4
2023-01-15T00:56:43.296Z,8.4
2023-01-15T00:57:43.291Z,8.2
2023-01-15T00:58:43.315Z,8.4
2023-01-15T00:59:43.298Z,8.4
2023-01-15T01:00:43.353Z,8.4
2023-01-15T01:01:43.501Z,8.4
2023-01-15T01:02:43.348Z,8.3
2023-01-15T01:03:43.305Z,8.2
2023-01-15T01:04:43.288Z,8.2
2023-01-15T01:05:43.286Z,8.1
2023-01-15T01:06:43.287Z,8
2023-01-15T01:07:43.295Z,8.1
2023-01-15T01:08:43.281Z,7.9
2023-01-15T01:09:43.286Z,8.1
2023-01-15T01:10:43.289Z,8.1
2023-01-15T01:11:43.304Z,7.9
2023-01-15T01:12:43.298Z,8
2023-01-15T01:13:43.299Z,8.1
2023-01-15T01:14:43.356Z,7.7
2023-01-15T01:15:43.299Z,7.9
2023-01-15T01:16:43.315Z,7.7
2023-01-15T01:18:43.290Z,7.6
2023-01-15T01:19:43.292Z,7.7
2023-01-15T01:20:43.280Z,7.8
2023-01-15T01:21:43.295Z,7.8
2023-01-15T01:22:43.282Z,8
2023-01-15T01:23:43.286Z,7.8
2023-01-15T01:24:43.313Z,8
2023-01-15T01:25:43.292Z,8
2023-01-15T01:26:43.290Z,7.9
2023-01-15T01:27:43.297Z,8
2023-01-15T01:28:43.295Z,8.1
2023-01-15T01:29:43.320Z,8.1
2023-01-15T01:31:43.372Z,7.8
2023-01-15T01:32:43.286Z,7.9
2023-01-15T01:33:43.284Z,7.9
2023-01-15T01:34:43.292Z,8
2023-01-15T01:35:43.289Z,7.9
2023-01-15T01:36:43.293Z,7.9
2023-01-15T01:37:43.282Z,8.1
2023-01-15T01:38:43.288Z,8
2023-01-15T01:39:43.301Z,7.9
2023-01-15T01:40:43.289Z,8
2023-01-15T01:41:43.280Z,8
2023-01-15T01:42:43.275Z,8.1
2023-01-15T01:43:43.284Z,8.1
2023-01-15T01:44:43.292Z,7.8
2023-01-15T01:45:43.328Z,7.8
2023-01-15T01:46:43.284Z,7.8
2023-01-15T01:47:43.296Z,8
2023-01-15T01:48:43.296Z,8.1
2023-01-15T01:49:43.284Z,8.1
2023-01-15T01:50:43.309Z,8.1
2023-01-15T01:52:43.303Z,8.1
2023-01-15T01:53:43.285Z,8.2
2023-01-15T01:54:43.344Z,8.1
2023-01-15T01:55:43.287Z,8.2
2023-01-15T01:56:43.291Z,8
2023-01-15T01:57:43.285Z,8
2023-01-15T01:58:43.280Z,8.1
2023-01-15T01:59:43.283Z,7.9
2023-01-15T02:00:43.304Z,7.9
2023-01-15T02:01:43.528Z,7.8
2023-01-15T02:02:43.372Z,8
2023-01-15T02:03:43.300Z,8.1
2023-01-15T02:04:43.277Z,7.8
2023-01-15T02:05:43.294Z,8
2023-01-15T02:06:43.329Z,8.1
2023-01-15T02:07:43.283Z,8
2023-01-15T02:08:44.056Z,8
2023-01-15T02:09:43.294Z,8.1
2023-01-15T02:10:43.282Z,8.1
2023-01-15T02:11:43.304Z,8
2023-01-15T02:12:43.284Z,8.1
2023-01-15T02:13:43.283Z,7.9
2023-01-15T02:14:43.297Z,8.3
2023-01-15T02:15:43.297Z,8.1
2023-01-15T02:16:43.339Z,8.1
2023-01-15T02:17:43.285Z,7.9
2023-01-15T02:18:43.281Z,8
2023-01-15T02:19:43.280Z,8.1
2023-01-15T02:20:43.287Z,8
2023-01-15T02:21:43.280Z,7.9
2023-01-15T02:22:43.275Z,8
2023-01-15T02:24:43.279Z,8.1
2023-01-15T02:25:43.297Z,8.1
2023-01-15T02:26:43.275Z,8
2023-01-15T02:27:43.283Z,8.1
2023-01-15T02:28:43.276Z,8.2
2023-01-15T02:29:43.278Z,8.1
2023-01-15T02:30:43.285Z,8.3
2023-01-15T02:31:43.355Z,7.9
2023-01-15T02:32:43.280Z,8.2
2023-01-15T02:33:43.282Z,7.7
2023-01-15T02:34:43.286Z,7.9
2023-01-15T02:35:43.281Z,7.9
2023-01-15T02:36:43.286Z,8
2023-01-15T02:37:43.433Z,8
2023-01-15T02:38:43.282Z,8.1
2023-01-15T02:39:43.282Z,8.1
2023-01-15T02:40:43.278Z,8.1
2023-01-15T02:41:43.307Z,7.8
2023-01-15T02:42:43.277Z,7.9
2023-01-15T02:43:43.280Z,8.1
2023-01-15T02:44:43.282Z,8.3
2023-01-15T02:45:43.306Z,8.1
2023-01-15T02:46:43.276Z,8.1
2023-01-15T02:47:43.287Z,8
2023-01-15T02:48:43.282Z,7.9
2023-01-15T02:49:43.287Z,8
2023-01-15T02:50:43.282Z,8
2023-01-15T02:51:43.279Z,7.9
2023-01-15T02:52:43.282Z,7.9
2023-01-15T02:53:43.310Z,8
2023-01-15T02:54:43.312Z,8
2023-01-15T02:55:43.277Z,8.1
2023-01-15T02:56:43.286Z,7.8
2023-01-15T02:57:43.279Z,7.8
2023-01-15T02:58:43.277Z,7.9
2023-01-15T02:59:43.303Z,7.9
2023-01-15T03:00:43.361Z,7.8
2023-01-15T03:01:43.364Z,7.8
2023-01-15T03:02:43.344Z,7.9
2023-01-15T03:03:43.283Z,8
2023-01-15T03:04:43.290Z,8
2023-01-15T03:06:43.308Z,7.9
2023-01-15T03:07:43.293Z,8
2023-01-15T03:08:43.287Z,7.9
2023-01-15T03:09:43.286Z,7.8
2023-01-15T03:10:43.277Z,7.8
2023-01-15T03:11:43.306Z,8.1
2023-01-15T03:12:43.284Z,8.1
2023-01-15T03:13:43.311Z,8
2023-01-15T03:14:43.320Z,7.7
2023-01-15T03:15:43.280Z,7.8
2023-01-15T03:16:43.339Z,7.9
2023-01-15T03:17:43.272Z,7.8
2023-01-15T03:18:43.282Z,7.9
2023-01-15T03:19:43.314Z,7.9
2023-01-15T03:20:43.283Z,7.9
2023-01-15T03:21:43.284Z,8
2023-01-15T03:22:43.284Z,7.9
2023-01-15T03:23:43.286Z,7.9
2023-01-15T03:25:43.311Z,7.6
2023-01-15T03:26:43.440Z,7.8
2023-01-15T03:27:43.281Z,7.9
2023-01-15T03:28:43.288Z,8
2023-01-15T03:29:43.277Z,7.8
2023-01-15T03:30:43.384Z,8
2023-01-15T03:31:43.276Z,8
2023-01-15T03:32:43.281Z,7.9
2023-01-15T03:33:43.286Z,7.7
2023-01-15T03:35:43.292Z,7.8
2023-01-15T03:36:43.289Z,8
2023-01-15T03:37:43.275Z,7.9
2023-01-15T03:39:43.284Z,7.9
2023-01-15T03:40:43.282Z,7.9
2023-01-15T03:41:43.286Z,7.9
2023-01-15T03:42:43.314Z,7.9
2023-01-15T03:43:43.284Z,7.9
2023-01-15T03:44:43.291Z,7.8
2023-01-15T03:45:43.360Z,8
2023-01-15T03:46:43.285Z,7.9
2023-01-15T03:48:43.284Z,7.8
2023-01-15T03:49:43.273Z,8
2023-01-15T03:50:43.280Z,7.8
2023-01-15T03:51:43.287Z,8
2023-01-15T03:52:43.283Z,7.7
2023-01-15T03:53:43.329Z,8
2023-01-15T03:54:43.272Z,7.9
2023-01-15T03:55:43.291Z,7.9
2023-01-15T03:56:43.303Z,7.7
2023-01-15T03:57:43.280Z,7.8
2023-01-15T03:58:43.278Z,7.9
2023-01-15T03:59:43.282Z,8
2023-01-15T04:01:43.515Z,8
2023-01-15T04:03:43.288Z,7.6
2023-01-15T04:04:43.299Z,7.7
2023-01-15T04:05:43.281Z,7.5
2023-01-15T04:06:43.275Z,7.8
2023-01-15T04:07:43.282Z,7.8
2023-01-15T04:08:43.281Z,7.7
2023-01-15T04:09:43.285Z,7.7
2023-01-15T04:10:43.290Z,7.8
2023-01-15T04:11:43.272Z,7.7
2023-01-15T04:12:43.396Z,7.7
2023-01-15T04:13:43.319Z,7.4
2023-01-15T04:14:43.281Z,7.5
2023-01-15T04:15:43.350Z,7.5
2023-01-15T04:16:43.272Z,7.6
2023-01-15T04:17:43.278Z,7.7
2023-01-15T04:18:43.275Z,7.7
2023-01-15T04:19:43.273Z,7.7
2023-01-15T04:20:43.290Z,7.8
2023-01-15T04:21:43.273Z,7.6
2023-01-15T04:22:43.281Z,7.6
2023-01-15T04:23:43.574Z,7.6
2023-01-15T04:24:43.291Z,7.4
2023-01-15T04:25:43.276Z,7.5
2023-01-15T04:26:43.285Z,7.3
2023-01-15T04:27:43.278Z,7.4
2023-01-15T04:28:43.298Z,7.5
2023-01-15T04:29:43.284Z,7.5
2023-01-15T04:30:43.399Z,7.5
2023-01-15T04:31:43.280Z,7.7
2023-01-15T04:32:43.273Z,7.7
2023-01-15T04:33:43.311Z,7.8
2023-01-15T04:34:43.308Z,7.6
2023-01-15T04:35:43.279Z,7.7
2023-01-15T04:36:43.283Z,7.6
2023-01-15T04:37:43.271Z,7.7
2023-01-15T04:38:43.293Z,7.6
2023-01-15T04:39:43.273Z,7.4
2023-01-15T04:40:43.282Z,7.7
2023-01-15T04:41:43.275Z,7.8
2023-01-15T04:42:43.279Z,7.8
2023-01-15T04:43:43.289Z,7.7
2023-01-15T04:44:43.301Z,7.6
2023-01-15T04:45:43.271Z,8
2023-01-15T04:46:43.282Z,7.5
2023-01-15T04:47:43.287Z,7.7
2023-01-15T04:48:43.274Z,7.9
2023-01-15T04:49:43.335Z,7.4
2023-01-15T04:50:43.311Z,7.6
2023-01-15T04:51:43.278Z,7.7
2023-01-15T04:52:43.275Z,7.6
2023-01-15T04:53:43.278Z,7.6
2023-01-15T04:54:43.284Z,7.8
2023-01-15T04:55:43.280Z,7.7
2023-01-15T04:56:43.277Z,7.7
2023-01-15T04:57:43.497Z,7.8
2023-01-15T04:58:43.275Z,7.5
2023-01-15T04:59:43.281Z,7.6
2023-01-15T05:00:43.280Z,8
2023-01-15T05:01:57.988Z,8
2023-01-15T05:03:43.273Z,7.9
2023-01-15T05:04:43.329Z,8
2023-01-15T05:05:43.296Z,8
2023-01-15T05:06:43.281Z,7.7
2023-01-15T05:07:43.286Z,7.9
2023-01-15T05:08:43.282Z,8.2
2023-01-15T05:09:43.297Z,7.8
2023-01-15T05:10:43.276Z,7.8
2023-01-15T05:11:43.268Z,7.8
2023-01-15T05:12:43.273Z,7.6
2023-01-15T05:13:43.276Z,7.5
2023-01-15T05:14:43.277Z,7.4
2023-01-15T05:15:43.400Z,7.6
2023-01-15T05:16:43.290Z,7.6
2023-01-15T05:17:43.290Z,7.8
2023-01-15T05:18:43.315Z,7.7
2023-01-15T05:19:43.287Z,7.7
2023-01-15T05:20:43.290Z,7.6
2023-01-15T05:21:43.277Z,7.9
2023-01-15T05:22:43.273Z,7.8
2023-01-15T05:23:43.295Z,7.9
2023-01-15T05:24:43.422Z,7.9
2023-01-15T05:25:43.288Z,8
2023-01-15T05:27:43.283Z,8.1
2023-01-15T05:28:43.279Z,8.1
2023-01-15T05:29:43.268Z,8
2023-01-15T05:30:43.391Z,7.9
2023-01-15T05:31:43.291Z,8
2023-01-15T05:32:43.278Z,7.9
2023-01-15T05:33:43.276Z,7.7
2023-01-15T05:34:43.273Z,7.6
2023-01-15T05:35:43.288Z,7.9
2023-01-15T05:36:43.275Z,7.8
2023-01-15T05:37:43.280Z,7.7
2023-01-15T05:38:43.268Z,7.8
2023-01-15T05:40:43.272Z,7.9
2023-01-15T05:41:43.273Z,7.7
2023-01-15T05:42:43.271Z,7.9
2023-01-15T05:43:43.283Z,8
2023-01-15T05:44:43.285Z,7.7
2023-01-15T05:45:43.265Z,7.8
2023-01-15T05:46:43.280Z,7.8
2023-01-15T05:47:43.279Z,7.8
2023-01-15T05:48:43.271Z,7.9
2023-01-15T05:49:43.281Z,7.9
2023-01-15T05:50:43.278Z,7.8
2023-01-15T05:51:43.269Z,7.8
2023-01-15T05:52:43.260Z,8
2023-01-15T05:53:43.274Z,7.8
2023-01-15T05:54:43.284Z,8
2023-01-15T05:55:43.320Z,8
2023-01-15T05:56:43.277Z,7.9
2023-01-15T05:57:43.272Z,8
2023-01-15T05:58:43.271Z,7.9
2023-01-15T05:59:43.279Z,7.9
2023-01-15T06:01:43.267Z,7.8
2023-01-15T06:02:43.317Z,7.7
2023-01-15T06:03:43.387Z,7.8
2023-01-15T06:04:43.280Z,7.8
2023-01-15T06:05:43.269Z,7.6
2023-01-15T06:06:43.308Z,7.7
2023-01-15T06:07:43.267Z,8
2023-01-15T06:08:43.263Z,7.8
2023-01-15T06:09:43.271Z,7.9
2023-01-15T06:10:43.413Z,7.8
2023-01-15T06:11:43.287Z,7.9
2023-01-15T06:12:43.269Z,7.9
2023-01-15T06:13:43.286Z,8
2023-01-15T06:14:43.280Z,7.9
2023-01-15T06:15:43.316Z,8
2023-01-15T06:16:43.270Z,8
2023-01-15T06:17:43.405Z,7.8
2023-01-15T06:18:43.266Z,7.9
2023-01-15T06:19:43.267Z,7.9
2023-01-15T06:20:43.262Z,7.9
2023-01-15T06:21:43.295Z,8.1
2023-01-15T06:22:43.266Z,7.9
2023-01-15T06:23:43.278Z,7.9
2023-01-15T06:24:43.264Z,7.9
2023-01-15T06:25:43.262Z,8
2023-01-15T06:26:43.269Z,8.1
2023-01-15T06:27:43.274Z,8
2023-01-15T06:28:43.264Z,8
2023-01-15T06:29:43.274Z,7.9
2023-01-15T06:30:43.263Z,7.8
2023-01-15T06:32:43.272Z,7.6
2023-01-15T06:33:43.323Z,7.7
2023-01-15T06:34:43.301Z,7.7
2023-01-15T06:35:43.277Z,7.7
2023-01-15T06:36:43.274Z,7.8
2023-01-15T06:37:43.265Z,8
2023-01-15T06:38:43.286Z,8
2023-01-15T06:39:43.265Z,8.1
2023-01-15T06:40:43.267Z,8.2
2023-01-15T06:41:43.282Z,8.1
2023-01-15T06:42:43.264Z,7.9
2023-01-15T06:43:43.280Z,8
2023-01-15T06:44:43.287Z,8.2
2023-01-15T06:45:43.263Z,8.1
2023-01-15T06:46:43.426Z,8.1
2023-01-15T06:47:43.273Z,8.1
2023-01-15T06:48:43.287Z,8.1
2023-01-15T06:49:43.276Z,8.1
2023-01-15T06:50:43.276Z,8.1
2023-01-15T06:51:43.267Z,8.2
2023-01-15T06:52:43.266Z,8
2023-01-15T06:53:43.270Z,8
2023-01-15T06:54:43.277Z,8.1
2023-01-15T06:55:43.274Z,8.2
2023-01-15T06:56:43.274Z,7.8
2023-01-15T06:57:43.275Z,8
2023-01-15T06:58:43.274Z,7.8
2023-01-15T06:59:43.262Z,7.9
2023-01-15T07:00:43.367Z,8
2023-01-15T07:01:43.337Z,7.9
2023-01-15T07:02:43.265Z,8
2023-01-15T07:03:43.398Z,8
2023-01-15T07:04:43.269Z,7.7
2023-01-15T07:05:43.273Z,7.7
2023-01-15T07:06:43.270Z,7.8
2023-01-15T07:07:43.266Z,7.8
2023-01-15T07:08:43.569Z,7.8
2023-01-15T07:09:43.271Z,8
2023-01-15T07:10:43.270Z,8
2023-01-15T07:11:43.260Z,8
2023-01-15T07:12:43.269Z,7.7
2023-01-15T07:13:43.259Z,7.6
2023-01-15T07:14:43.268Z,7.9
2023-01-15T07:15:43.283Z,7.9
2023-01-15T07:16:43.264Z,8
2023-01-15T07:17:43.270Z,8
2023-01-15T07:18:43.266Z,7.8
2023-01-15T07:19:43.265Z,7.9
2023-01-15T07:20:43.259Z,7.8
2023-01-15T07:21:43.262Z,7.9
2023-01-15T07:22:43.271Z,7.9
2023-01-15T07:23:43.264Z,8
2023-01-15T07:24:43.274Z,7.8
2023-01-15T07:25:43.264Z,7.9
2023-01-15T07:26:43.263Z,7.9
2023-01-15T07:27:43.274Z,7.6
2023-01-15T07:28:43.261Z,7.8
2023-01-15T07:29:43.275Z,7.9
2023-01-15T07:30:43.258Z,7.8
2023-01-15T07:31:43.381Z,7.9
2023-01-15T07:32:43.304Z,8
2023-01-15T07:33:43.270Z,7.9
2023-01-15T07:34:43.277Z,7.9
2023-01-15T07:35:43.270Z,7.8
2023-01-15T07:36:43.268Z,7.9
2023-01-15T07:37:43.265Z,7.8
2023-01-15T07:38:43.266Z,7.9
2023-01-15T07:39:43.274Z,7.8
2023-01-15T07:40:43.269Z,7.8
2023-01-15T07:41:43.294Z,7.7
2023-01-15T07:42:43.260Z,7.8
2023-01-15T07:43:43.265Z,7.9
2023-01-15T07:44:43.263Z,7.7
2023-01-15T07:45:43.302Z,7.6
2023-01-15T07:46:43.269Z,7.5
2023-01-15T07:47:43.263Z,7.7
2023-01-15T07:48:43.265Z,7.7
2023-01-15T07:49:43.294Z,7.5
2023-01-15T07:50:43.271Z,7.7
2023-01-15T07:51:43.260Z,7.7
2023-01-15T07:52:43.292Z,7.9
2023-01-15T07:54:43.267Z,7.9
2023-01-15T07:55:43.263Z,7.9
2023-01-15T07:56:43.263Z,8
2023-01-15T07:57:43.296Z,7.8
2023-01-15T07:59:43.282Z,7.7
2023-01-15T08:00:43.322Z,7.7
2023-01-15T08:01:43.407Z,8
2023-01-15T08:02:43.257Z,7.9
2023-01-15T08:03:43.367Z,7.8
2023-01-15T08:04:43.262Z,7.9
2023-01-15T08:05:43.292Z,7.6
2023-01-15T08:07:43.255Z,7.7
2023-01-15T08:08:43.269Z,7.8
2023-01-15T08:09:43.276Z,7.8
2023-01-15T08:10:43.264Z,7.6
2023-01-15T08:11:43.264Z,7.9
2023-01-15T08:12:43.265Z,7.7
2023-01-15T08:13:43.262Z,7.9
2023-01-15T08:14:43.262Z,7.9
2023-01-15T08:15:43.271Z,7.9
2023-01-15T08:16:43.335Z,8
2023-01-15T08:17:43.262Z,7.8
2023-01-15T08:18:43.261Z,7.8
2023-01-15T08:19:43.263Z,7.8
2023-01-15T08:20:45.556Z,7.8
2023-01-15T08:21:43.263Z,7.9
2023-01-15T08:22:43.262Z,7.9
2023-01-15T08:23:43.285Z,7.8
2023-01-15T08:24:43.264Z,7.8
2023-01-15T08:25:43.263Z,7.7
2023-01-15T08:26:43.275Z,7.9
2023-01-15T08:28:43.257Z,8
2023-01-15T08:29:43.261Z,8
2023-01-15T08:30:43.266Z,8
2023-01-15T08:31:43.335Z,8.1
2023-01-15T08:32:43.387Z,8
2023-01-15T08:33:43.304Z,7.9
2023-01-15T08:34:43.264Z,7.9
2023-01-15T08:35:43.293Z,8
2023-01-15T08:36:43.276Z,7.9
2023-01-15T08:37:43.267Z,7.8
2023-01-15T08:38:43.253Z,7.6
2023-01-15T08:39:43.257Z,7.7
2023-01-15T08:40:43.271Z,7.6
2023-01-15T08:41:43.257Z,7.6
2023-01-15T08:42:43.278Z,7.7
2023-01-15T08:43:43.257Z,7.9
2023-01-15T08:44:43.305Z,7.8
2023-01-15T08:45:43.350Z,7.8
2023-01-15T08:46:43.260Z,7.8
2023-01-15T08:47:43.259Z,7.6
2023-01-15T08:48:43.266Z,7.5
2023-01-15T08:50:43.270Z,7.7
2023-01-15T08:51:43.253Z,7.7
2023-01-15T08:52:43.248Z,7.4
2023-01-15T08:53:43.258Z,7.5
2023-01-15T08:54:43.263Z,7.6
2023-01-15T08:55:43.267Z,7.7
2023-01-15T08:56:43.255Z,7.6
2023-01-15T08:57:43.257Z,7.4
2023-01-15T08:58:43.253Z,7.6
2023-01-15T08:59:43.251Z,7.6
2023-01-15T09:00:43.256Z,7.3
2023-01-15T09:01:43.397Z,7.4
2023-01-15T09:02:43.258Z,7.6
2023-01-15T09:03:43.273Z,7.6
2023-01-15T09:04:43.314Z,7.7
2023-01-15T09:05:43.253Z,7.5
2023-01-15T09:06:43.257Z,7.6
2023-01-15T09:07:43.293Z,7.6
2023-01-15T09:08:43.266Z,7.4
2023-01-15T09:09:43.250Z,7.6
2023-01-15T09:10:43.261Z,7.5
2023-01-15T09:11:43.318Z,7.6
2023-01-15T09:12:43.260Z,7.6
2023-01-15T09:13:44.475Z,7.6
2023-01-15T09:14:59.678Z,7.6
2023-01-15T09:15:43.259Z,7.4
2023-01-15T09:17:43.255Z,7.7
2023-01-15T09:18:43.281Z,7.7
2023-01-15T09:19:43.271Z,7.8
2023-01-15T09:20:43.252Z,7.6
2023-01-15T09:21:43.312Z,8.2
2023-01-15T09:22:43.252Z,8.3
2023-01-15T09:23:43.256Z,8.4
2023-01-15T09:24:43.265Z,8.4
2023-01-15T09:25:43.252Z,8.4
2023-01-15T09:26:43.251Z,8.2
2023-01-15T09:27:43.262Z,8.8
2023-01-15T09:28:43.256Z,8.9
2023-01-15T09:29:43.259Z,9.2
2023-01-15T09:30:43.349Z,9.2
2023-01-15T09:31:43.280Z,8.9
2023-01-15T09:32:43.267Z,8.6
2023-01-15T09:33:43.258Z,8.8
2023-01-15T09:34:43.254Z,8.4
2023-01-15T09:36:43.252Z,8.3
2023-01-15T09:37:43.271Z,8.3
2023-01-15T09:38:43.254Z,9
2023-01-15T09:39:43.259Z,9.3
2023-01-15T09:40:43.263Z,8.8
2023-01-15T09:41:43.255Z,8.9
2023-01-15T09:42:43.256Z,8.4
2023-01-15T09:43:50.329Z,8.4
2023-01-15T09:44:43.388Z,8
2023-01-15T09:45:43.319Z,8.3
2023-01-15T09:46:43.248Z,8.4
2023-01-15T09:47:43.261Z,8.2
2023-01-15T09:48:43.244Z,8.1
2023-01-15T09:49:43.261Z,8
2023-01-15T09:50:43.252Z,7.9
2023-01-15T09:51:43.277Z,7.9
2023-01-15T09:52:43.248Z,8
2023-01-15T09:53:43.251Z,8.1
2023-01-15T09:54:43.258Z,8.3
2023-01-15T09:56:43.256Z,8.7
2023-01-15T09:57:43.259Z,8.9
2023-01-15T09:58:43.246Z,8.9
2023-01-15T09:59:43.252Z,8.7
2023-01-15T10:00:43.247Z,8.7
2023-01-15T10:01:43.250Z,8.7
2023-01-15T10:02:43.249Z,8.8
2023-01-15T10:03:43.254Z,8.9
2023-01-15T10:04:43.267Z,8.9
2023-01-15T10:05:43.257Z,8.8
2023-01-15T10:06:43.246Z,8.5
2023-01-15T10:07:43.249Z,8.7
2023-01-15T10:09:43.250Z,8.3
2023-01-15T10:10:43.256Z,8.3
2023-01-15T10:11:43.247Z,8.2
2023-01-15T10:12:43.254Z,8.1
2023-01-15T10:13:43.259Z,8.2
2023-01-15T10:14:43.260Z,8.4
2023-01-15T10:15:43.359Z,8.3
2023-01-15T10:16:43.257Z,8.5
2023-01-15T10:18:43.247Z,8.1
2023-01-15T10:19:44.744Z,8.1
2023-01-15T10:20:43.254Z,8.2
2023-01-15T10:21:43.252Z,8.1
2023-01-15T10:22:43.247Z,8
2023-01-15T10:23:43.257Z,8
2023-01-15T10:24:43.271Z,8.2
2023-01-15T10:25:43.251Z,8.1
2023-01-15T10:26:43.289Z,8.6
2023-01-15T10:27:43.241Z,9.6
2023-01-15T10:28:43.242Z,10.2
2023-01-15T10:30:43.326Z,11.7
2023-01-15T10:31:43.239Z,10.7
2023-01-15T10:32:56.942Z,10.9
2023-01-15T10:33:43.251Z,11.5
2023-01-15T10:34:43.257Z,12
2023-01-15T10:35:43.248Z,12.5
2023-01-15T10:36:43.248Z,12.7
2023-01-15T10:38:43.244Z,14.7
2023-01-15T10:39:43.261Z,13.7
2023-01-15T10:40:43.359Z,13.5
2023-01-15T10:41:43.266Z,13.3
2023-01-15T10:42:43.243Z,12.3
2023-01-15T10:43:43.251Z,12.2
2023-01-15T10:44:43.255Z,11.5
2023-01-15T10:45:43.247Z,10.7
2023-01-15T10:46:43.256Z,10
2023-01-15T10:47:43.270Z,9.7
2023-01-15T10:48:43.243Z,9.7
2023-01-15T10:49:43.270Z,9.8
2023-01-15T10:50:43.252Z,10.7
2023-01-15T10:51:43.246Z,11.3
2023-01-15T10:52:44.790Z,11.6
2023-01-15T10:53:43.251Z,11.7
2023-01-15T10:54:43.249Z,12.8
2023-01-15T10:55:43.259Z,13.3
2023-01-15T10:56:43.243Z,12.2
2023-01-15T10:57:43.243Z,12.1
2023-01-15T10:58:45.401Z,11.3
2023-01-15T10:59:43.258Z,10.7
2023-01-15T11:00:43.261Z,10.3
2023-01-15T11:01:43.406Z,10
2023-01-15T11:02:43.453Z,10
2023-01-15T11:03:43.277Z,9.9
2023-01-15T11:04:45.594Z,10.3
2023-01-15T11:05:43.241Z,10.2
2023-01-15T11:06:43.243Z,10.1
2023-01-15T11:08:03.239Z,10.3
2023-01-15T11:09:07.897Z,10.2
2023-01-15T11:09:43.262Z,10
2023-01-15T11:10:43.242Z,9.6
2023-01-15T11:12:43.246Z,9.6
2023-01-15T11:13:43.254Z,9.7
2023-01-15T11:14:43.238Z,9.9
2023-01-15T11:16:44.269Z,9.9
2023-01-15T11:17:43.245Z,9.8
2023-01-15T11:18:43.338Z,9.8
2023-01-15T11:19:43.246Z,9.6
2023-01-15T11:20:43.269Z,9.6
2023-01-15T11:21:43.287Z,9.6
2023-01-15T11:22:44.942Z,9.5
2023-01-15T11:23:43.249Z,9.4
2023-01-15T11:24:43.241Z,9.3
2023-01-15T11:25:43.275Z,9.6
2023-01-15T11:26:43.312Z,9.7
2023-01-15T11:27:43.242Z,9.4
2023-01-15T11:28:43.432Z,9.6
2023-01-15T11:29:43.248Z,9.3
2023-01-15T11:30:43.388Z,9.3
2023-01-15T11:31:43.291Z,9.4
2023-01-15T11:32:43.247Z,9.2
2023-01-15T11:33:43.360Z,9.2
2023-01-15T11:34:43.250Z,9.1
2023-01-15T11:35:43.240Z,9
2023-01-15T11:36:43.252Z,9.1
2023-01-15T11:37:43.253Z,9.3
2023-01-15T11:38:43.359Z,9.4
2023-01-15T11:39:43.246Z,9.2
2023-01-15T11:40:43.240Z,9.3
2023-01-15T11:41:43.239Z,9.4
2023-01-15T11:43:43.233Z,9.1
2023-01-15T11:45:43.255Z,9
2023-01-15T11:46:43.327Z,9
2023-01-15T11:47:44.919Z,8.9
2023-01-15T11:48:43.325Z,9.1
2023-01-15T11:49:43.256Z,9.1
2023-01-15T11:50:43.258Z,9
2023-01-15T11:51:43.240Z,9.1
2023-01-15T11:52:43.245Z,9.1
2023-01-15T11:54:43.241Z,9
2023-01-15T11:56:43.251Z,8.9
2023-01-15T11:57:43.242Z,8.9
2023-01-15T11:58:43.249Z,9
2023-01-15T11:59:43.247Z,9
2023-01-15T12:00:43.236Z,9
2023-01-15T12:01:43.268Z,8.9
2023-01-15T12:02:43.241Z,8.9
2023-01-15T12:03:43.442Z,8.8
2023-01-15T12:04:45.387Z,8.5
2023-01-15T12:05:43.246Z,8.6
2023-01-15T12:06:43.273Z,8.6
2023-01-15T12:07:43.246Z,8.6
2023-01-15T12:08:43.290Z,8.5
2023-01-15T12:09:43.244Z,8.6
2023-01-15T12:10:43.245Z,8.7
2023-01-15T12:12:43.240Z,8.6
2023-01-15T12:13:43.243Z,8.7
2023-01-15T12:14:43.247Z,8.6
2023-01-15T12:16:43.247Z,8.6
2023-01-15T12:17:43.240Z,8.6
2023-01-15T12:18:43.242Z,8.6
2023-01-15T12:20:43.238Z,8.5
2023-01-15T12:21:43.239Z,8.4
2023-01-15T12:22:43.233Z,8.6
2023-01-15T12:23:43.238Z,8.6
2023-01-15T12:24:43.242Z,8.7
2023-01-15T12:25:43.234Z,8.5
2023-01-15T12:26:43.239Z,8.6
2023-01-15T12:27:43.249Z,8.6
2023-01-15T12:28:43.256Z,8.6
2023-01-15T12:29:43.244Z,8.8
2023-01-15T12:30:43.240Z,8.6
2023-01-15T12:31:43.321Z,8.6
2023-01-15T12:32:43.270Z,8.7
2023-01-15T12:33:43.245Z,8.8
2023-01-15T12:34:43.247Z,8.9
2023-01-15T12:35:43.240Z,8.8
2023-01-15T12:36:43.240Z,8.8
2023-01-15T12:37:43.254Z,8.6
2023-01-15T12:38:43.233Z,8.9
2023-01-15T12:39:43.250Z,9.7
2023-01-15T12:41:43.236Z,10.6
2023-01-15T12:42:43.241Z,10.7
2023-01-15T12:43:43.247Z,11.1
2023-01-15T12:44:43.231Z,11.1
2023-01-15T12:45:43.238Z,11.5
2023-01-15T12:46:43.321Z,10.9
2023-01-15T12:47:43.238Z,10.6
2023-01-15T12:48:43.235Z,10.7
2023-01-15T12:49:43.226Z,10.4
2023-01-15T12:50:43.235Z,10.1
2023-01-15T12:51:43.239Z,10.1
2023-01-15T12:52:43.234Z,9.5
2023-01-15T12:53:43.262Z,9.5
2023-01-15T12:54:43.240Z,9.4
2023-01-15T12:55:43.238Z,9.3
2023-01-15T12:56:43.241Z,9.5
2023-01-15T12:57:43.239Z,9.5
2023-01-15T12:58:43.248Z,9.5
2023-01-15T12:59:43.244Z,9.4
2023-01-15T13:00:43.315Z,9.3
2023-01-15T13:01:43.346Z,9.3
2023-01-15T13:02:43.237Z,9.2
2023-01-15T13:03:43.236Z,9
2023-01-15T13:04:43.246Z,9
2023-01-15T13:05:43.246Z,8.8
2023-01-15T13:06:43.233Z,8.9
2023-01-15T13:07:43.237Z,9
2023-01-15T13:08:43.242Z,9
2023-01-15T13:10:43.242Z,9
2023-01-15T13:11:43.233Z,9
2023-01-15T13:12:43.234Z,9.1
2023-01-15T13:13:43.243Z,9.2
2023-01-15T13:14:46.322Z,9.1
2023-01-15T13:15:43.239Z,9.1
2023-01-15T13:16:43.237Z,8.9
2023-01-15T13:17:43.251Z,8.8
2023-01-15T13:18:43.244Z,8.8
2023-01-15T13:19:43.246Z,8.9
2023-01-15T13:20:43.236Z,8.9
2023-01-15T13:21:43.235Z,8.9
2023-01-15T13:22:43.242Z,8.7
2023-01-15T13:23:43.240Z,8.7
2023-01-15T13:24:43.236Z,8.7
2023-01-15T13:25:44.008Z,8.8
2023-01-15T13:26:43.233Z,8.6
2023-01-15T13:27:43.252Z,8.8
2023-01-15T13:28:43.258Z,8.9
2023-01-15T13:29:43.242Z,8.8
2023-01-15T13:30:43.239Z,8.9
2023-01-15T13:31:43.314Z,9
2023-01-15T13:33:43.243Z,8.8
2023-01-15T13:34:43.245Z,8.9
2023-01-15T13:35:43.250Z,8.8
2023-01-15T13:36:45.537Z,8.9
2023-01-15T13:37:43.237Z,8.8
2023-01-15T13:38:43.240Z,8.8
2023-01-15T13:39:43.233Z,8.7
2023-01-15T13:40:43.243Z,8.6
2023-01-15T13:42:45.276Z,8.8
2023-01-15T13:43:43.253Z,8.6
2023-01-15T13:44:43.237Z,8.8
2023-01-15T13:45:43.285Z,8.7
2023-01-15T13:46:43.236Z,8.6
2023-01-15T13:47:43.233Z,8.9
2023-01-15T13:48:45.329Z,8.7
2023-01-15T13:49:43.232Z,8.8
2023-01-15T13:50:43.240Z,8.8
2023-01-15T13:51:43.282Z,8.6
2023-01-15T13:52:43.233Z,8.6
2023-01-15T13:53:43.228Z,8.8
2023-01-15T13:54:43.244Z,8.9
2023-01-15T13:55:43.239Z,8.8
2023-01-15T13:56:43.237Z,8.7
2023-01-15T13:57:43.269Z,8.8
2023-01-15T13:59:43.257Z,8.7
2023-01-15T14:00:43.294Z,8.7
2023-01-15T14:01:43.358Z,8.8
2023-01-15T14:03:43.229Z,8.7
2023-01-15T14:04:43.303Z,8.8
2023-01-15T14:05:43.233Z,8.8
2023-01-15T14:06:43.276Z,8.7
2023-01-15T14:07:43.247Z,8.5
2023-01-15T14:08:43.248Z,8.6
2023-01-15T14:09:43.229Z,8.6
2023-01-15T14:10:43.244Z,8.8
2023-01-15T14:11:43.266Z,8.8
2023-01-15T14:12:43.332Z,8.8
2023-01-15T14:13:43.254Z,8.7
2023-01-15T14:14:43.235Z,8.7
2023-01-15T14:15:43.235Z,8.9
2023-01-15T14:16:43.327Z,8.9
2023-01-15T14:17:43.241Z,8.9
2023-01-15T14:18:43.238Z,8.7
2023-01-15T14:20:43.235Z,8.7
2023-01-15T14:21:43.317Z,8.7
2023-01-15T14:22:43.233Z,8.9
2023-01-15T14:24:45.660Z,8.6
2023-01-15T14:25:43.234Z,8.7
2023-01-15T14:26:43.236Z,8.7
2023-01-15T14:27:43.234Z,8.8
2023-01-15T14:28:43.228Z,8.8
2023-01-15T14:29:43.241Z,8.6
2023-01-15T14:30:43.234Z,8.7
2023-01-15T14:31:43.313Z,8.8
2023-01-15T14:32:45.000Z,8.7
2023-01-15T14:33:43.226Z,8.7
2023-01-15T14:34:43.231Z,8.5
2023-01-15T14:35:43.232Z,8.8
2023-01-15T14:36:43.537Z,8.8
2023-01-15T14:37:43.236Z,8.8
2023-01-15T14:38:43.224Z,8.8
2023-01-15T14:39:43.236Z,8.5